createdAt,value
2022-07-27T00:00:37.380Z,20.00
2022-07-27T00:01:50.670Z,20.00
2022-07-27T00:02:56.655Z,20.00
2022-07-27T00:04:05.731Z,20.00
2022-07-27T00:05:12.078Z,20.00
2022-07-27T00:06:26.101Z,20.00
2022-07-27T00:07:31.246Z,20.00
2022-07-27T00:08:39.085Z,20.00
2022-07-27T00:09:46.862Z,20.00
2022-07-27T00:11:01.683Z,20.00
2022-07-27T00:12:07.965Z,20.00
2022-07-27T00:13:12.394Z,20.00
2022-07-27T00:14:17.345Z,20.00
2022-07-27T00:15:26.519Z,20.00
2022-07-27T00:16:40.777Z,19.90
2022-07-27T00:17:45.643Z,19.90
2022-07-27T00:18:51.169Z,19.90
2022-07-27T00:20:04.374Z,19.80
2022-07-27T00:21:22.618Z,19.80
2022-07-27T00:22:32.229Z,19.80
2022-07-27T00:23:35.863Z,19.70
2022-07-27T00:24:39.658Z,19.70
2022-07-27T00:25:47.969Z,19.70
2022-07-27T00:26:55.190Z,19.80
2022-07-27T00:27:58.581Z,19.80
2022-07-27T00:29:04.904Z,19.80
2022-07-27T00:30:08.471Z,19.80
2022-07-27T00:31:16.517Z,19.70
2022-07-27T00:32:21.237Z,19.80
2022-07-27T00:33:25.372Z,19.80
2022-07-27T00:34:30.785Z,19.80
2022-07-27T00:35:37.536Z,19.70
2022-07-27T00:36:44.260Z,19.60
2022-07-27T00:37:47.958Z,19.60
2022-07-27T00:39:01.749Z,19.70
2022-07-27T00:42:09.119Z,19.60
2022-07-27T00:43:31.380Z,19.50
2022-07-27T00:46:05.264Z,19.40
2022-07-27T00:47:16.267Z,19.30
2022-07-27T00:49:42.127Z,19.40
2022-07-27T00:50:53.937Z,19.40
2022-07-27T00:52:00.545Z,19.30
2022-07-27T00:53:12.376Z,19.30
2022-07-27T00:54:16.640Z,17.60
2022-07-27T00:55:25.326Z,19.30
2022-07-27T00:56:33.562Z,19.30
2022-07-27T00:57:58.648Z,19.40
2022-07-27T00:59:12.096Z,19.30
2022-07-27T01:00:21.920Z,19.30
2022-07-27T01:01:31.939Z,19.40
2022-07-27T01:02:57.399Z,19.40
2022-07-27T01:04:25.912Z,19.40
2022-07-27T01:05:46.465Z,19.50
2022-07-27T01:06:54.007Z,19.40
2022-07-27T01:08:06.706Z,19.40
2022-07-27T01:09:37.611Z,19.30
2022-07-27T01:10:51.032Z,19.30
2022-07-27T01:11:56.788Z,19.30
2022-07-27T01:14:58.534Z,19.20
2022-07-27T01:16:10.649Z,19.20
2022-07-27T01:17:25.564Z,19.20
2022-07-27T01:18:42.770Z,18.60
2022-07-27T01:19:48.711Z,19.20
2022-07-27T01:20:57.329Z,19.20
2022-07-27T01:23:45.564Z,19.20
2022-07-27T01:24:50.639Z,19.20
2022-07-27T01:25:59.318Z,19.20
2022-07-27T01:27:11.653Z,19.30
2022-07-27T01:28:23.521Z,19.30
2022-07-27T01:29:34.652Z,19.30
2022-07-27T01:30:44.672Z,19.30
2022-07-27T01:32:03.446Z,19.30
2022-07-27T01:33:12.267Z,19.30
2022-07-27T01:34:24.243Z,19.30
2022-07-27T01:35:32.984Z,19.30
2022-07-27T01:36:54.868Z,19.40
2022-07-27T01:39:32.092Z,19.20
2022-07-27T01:40:42.056Z,19.20
2022-07-27T01:41:48.771Z,19.20
2022-07-27T01:43:03.530Z,19.20
2022-07-27T01:44:12.536Z,19.70
2022-07-27T01:45:30.883Z,19.20
2022-07-27T01:47:19.970Z,19.20
2022-07-27T01:48:37.746Z,19.20
2022-07-27T01:49:49.971Z,19.20
2022-07-27T01:51:14.943Z,19.10
2022-07-27T01:54:24.792Z,19.20
2022-07-27T01:55:38.761Z,19.20
2022-07-27T01:56:45.810Z,19.30
2022-07-27T01:57:54.375Z,19.30
2022-07-27T01:59:02.726Z,19.30
2022-07-27T02:00:13.847Z,19.30
2022-07-27T02:01:23.564Z,19.30
2022-07-27T02:02:41.993Z,19.30
2022-07-27T02:03:58.863Z,19.30
2022-07-27T02:05:30.905Z,19.30
2022-07-27T02:07:04.973Z,19.30
2022-07-27T02:08:20.512Z,19.30
2022-07-27T02:09:38.036Z,19.20
2022-07-27T02:11:13.532Z,19.30
2022-07-27T02:12:43.538Z,19.30
2022-07-27T02:15:15.795Z,19.20
2022-07-27T02:16:39.520Z,19.30
2022-07-27T02:17:56.114Z,19.20
2022-07-27T02:21:04.687Z,19.20
2022-07-27T02:22:22.001Z,19.20
2022-07-27T02:23:43.222Z,19.20
2022-07-27T02:26:35.066Z,19.20
2022-07-27T02:27:56.487Z,19.20
2022-07-27T02:29:17.734Z,19.20
2022-07-27T02:33:12.452Z,19.10
2022-07-27T02:34:14.963Z,19.20
2022-07-27T02:35:19.550Z,19.10
2022-07-27T02:36:24.039Z,19.00
2022-07-27T02:37:27.729Z,19.00
2022-07-27T02:38:30.091Z,19.00
2022-07-27T02:39:33.696Z,19.00
2022-07-27T02:40:35.936Z,19.10
2022-07-27T02:41:39.116Z,19.00
2022-07-27T02:42:41.466Z,19.10
2022-07-27T02:43:44.931Z,19.10
2022-07-27T02:44:47.386Z,19.00
2022-07-27T02:45:50.750Z,19.10
2022-07-27T02:46:53.171Z,19.10
2022-07-27T02:47:56.564Z,19.10
2022-07-27T02:48:59.983Z,19.10
2022-07-27T02:50:02.507Z,19.10
2022-07-27T02:51:05.969Z,19.10
2022-07-27T02:52:10.422Z,19.10
2022-07-27T02:53:13.995Z,19.10
2022-07-27T02:54:16.285Z,19.10
2022-07-27T02:55:19.813Z,19.20
2022-07-27T02:56:26.808Z,19.10
2022-07-27T02:57:30.986Z,19.20
2022-07-27T02:58:33.438Z,19.20
2022-07-27T02:59:36.728Z,19.10
2022-07-27T03:00:39.123Z,19.10
2022-07-27T03:01:42.544Z,19.10
2022-07-27T03:02:49.337Z,19.10
2022-07-27T03:03:53.095Z,19.20
2022-07-27T03:04:55.619Z,19.10
2022-07-27T03:05:58.825Z,19.20
2022-07-27T03:07:01.048Z,19.20
2022-07-27T03:08:06.246Z,19.20
2022-07-27T03:09:09.220Z,18.10
2022-07-27T03:10:12.911Z,19.10
2022-07-27T03:11:16.001Z,19.20
2022-07-27T03:12:19.195Z,19.10
2022-07-27T03:13:21.709Z,19.10
2022-07-27T03:14:25.660Z,19.20
2022-07-27T03:15:29.915Z,19.10
2022-07-27T03:16:33.299Z,19.20
2022-07-27T03:17:35.954Z,19.20
2022-07-27T03:18:39.451Z,19.30
2022-07-27T03:19:42.095Z,19.30
2022-07-27T03:20:45.695Z,19.40
2022-07-27T03:21:47.953Z,19.40
2022-07-27T03:22:51.201Z,19.30
2022-07-27T03:23:54.842Z,19.30
2022-07-27T03:24:58.190Z,19.30
2022-07-27T03:26:01.699Z,19.30
2022-07-27T03:27:04.261Z,19.30
2022-07-27T03:28:07.614Z,19.30
2022-07-27T03:29:10.393Z,19.30
2022-07-27T03:30:14.482Z,18.50
2022-07-27T03:31:16.920Z,19.30
2022-07-27T03:32:20.247Z,19.30
2022-07-27T03:33:22.705Z,19.30
2022-07-27T03:34:26.018Z,19.30
2022-07-27T03:35:30.860Z,19.30
2022-07-27T03:36:34.297Z,19.20
2022-07-27T03:37:36.610Z,19.20
2022-07-27T03:38:39.956Z,19.20
2022-07-27T03:39:43.690Z,19.20
2022-07-27T03:40:47.032Z,19.20
2022-07-27T03:41:49.429Z,19.20
2022-07-27T03:42:52.775Z,19.20
2022-07-27T03:43:55.206Z,19.20
2022-07-27T03:44:58.621Z,19.20
2022-07-27T03:46:01.603Z,19.20
2022-07-27T03:47:05.011Z,19.20
2022-07-27T03:48:07.355Z,19.20
2022-07-27T03:49:14.494Z,19.30
2022-07-27T03:50:17.506Z,19.20
2022-07-27T03:51:21.149Z,19.20
2022-07-27T03:52:23.674Z,19.20
2022-07-27T03:53:26.995Z,19.20
2022-07-27T03:54:29.164Z,19.20
2022-07-27T03:55:33.956Z,19.20
2022-07-27T03:56:36.706Z,19.20
2022-07-27T03:57:40.360Z,19.10
2022-07-27T03:58:44.447Z,19.20
2022-07-27T03:59:46.677Z,19.20
2022-07-27T04:00:50.048Z,19.20
2022-07-27T04:01:55.324Z,19.20
2022-07-27T04:02:58.641Z,19.20
2022-07-27T04:04:01.386Z,20.60
2022-07-27T04:05:05.222Z,19.20
2022-07-27T04:06:07.534Z,19.10
2022-07-27T04:07:10.825Z,19.10
2022-07-27T04:08:13.430Z,19.00
2022-07-27T04:09:17.307Z,19.90
2022-07-27T04:10:22.948Z,19.10
2022-07-27T04:11:29.130Z,19.00
2022-07-27T04:12:33.289Z,19.00
2022-07-27T04:13:38.337Z,19.10
2022-07-27T04:14:41.808Z,19.00
2022-07-27T04:15:45.343Z,19.00
2022-07-27T04:16:49.045Z,19.00
2022-07-27T04:17:56.801Z,19.00
2022-07-27T04:19:00.698Z,19.00
2022-07-27T04:20:04.311Z,19.00
2022-07-27T04:21:07.630Z,19.10
2022-07-27T04:22:09.927Z,19.10
2022-07-27T04:23:13.276Z,19.10
2022-07-27T04:24:16.068Z,19.10
2022-07-27T04:25:19.387Z,19.10
2022-07-27T04:26:21.720Z,19.10
2022-07-27T04:27:26.333Z,19.10
2022-07-27T04:28:29.640Z,19.20
2022-07-27T04:29:31.905Z,19.40
2022-07-27T04:30:37.623Z,19.60
2022-07-27T04:31:39.946Z,19.70
2022-07-27T04:32:43.226Z,19.90
2022-07-27T04:33:45.813Z,20.00
2022-07-27T04:34:49.452Z,20.00
2022-07-27T04:35:51.734Z,20.10
2022-07-27T04:36:55.089Z,20.20
2022-07-27T04:37:58.216Z,20.20
2022-07-27T04:39:03.015Z,20.30
2022-07-27T04:40:07.902Z,19.20
2022-07-27T04:41:11.390Z,20.50
2022-07-27T04:42:13.594Z,20.60
2022-07-27T04:43:18.194Z,20.70
2022-07-27T04:44:20.520Z,20.80
2022-07-27T04:45:24.586Z,20.80
2022-07-27T04:46:27.329Z,20.90
2022-07-27T04:47:30.591Z,21.00
2022-07-27T04:48:33.149Z,21.00
2022-07-27T04:49:36.674Z,21.10
2022-07-27T04:50:40.406Z,21.10
2022-07-27T04:51:45.153Z,21.10
2022-07-27T04:52:47.651Z,21.10
2022-07-27T04:53:53.350Z,21.00
2022-07-27T04:55:02.092Z,21.10
2022-07-27T04:56:05.092Z,21.10
2022-07-27T04:57:08.345Z,21.00
2022-07-27T04:58:11.284Z,21.00
2022-07-27T04:59:15.972Z,21.00
2022-07-27T05:00:18.965Z,21.00
2022-07-27T05:01:23.171Z,21.20
2022-07-27T05:02:26.633Z,21.30
2022-07-27T05:03:30.174Z,21.50
2022-07-27T05:04:32.498Z,21.60
2022-07-27T05:05:36.333Z,21.90
2022-07-27T05:06:38.743Z,22.00
2022-07-27T05:07:42.170Z,22.30
2022-07-27T05:08:44.546Z,22.50
2022-07-27T05:09:47.719Z,22.60
2022-07-27T05:10:50.265Z,22.80
2022-07-27T05:11:53.555Z,23.00
2022-07-27T05:12:58.239Z,23.20
2022-07-27T05:14:02.515Z,23.50
2022-07-27T05:15:07.027Z,23.60
2022-07-27T05:16:11.438Z,23.80
2022-07-27T05:17:13.951Z,24.00
2022-07-27T05:18:17.440Z,24.20
2022-07-27T05:19:19.745Z,24.40
2022-07-27T05:20:22.964Z,24.50
2022-07-27T05:21:25.900Z,24.60
2022-07-27T05:22:29.261Z,24.50
2022-07-27T05:23:31.666Z,25.00
2022-07-27T05:24:35.008Z,25.10
2022-07-27T05:25:37.300Z,25.20
2022-07-27T05:26:40.515Z,25.40
2022-07-27T05:27:51.069Z,25.40
2022-07-27T05:28:58.175Z,25.60
2022-07-27T05:30:00.535Z,25.70
2022-07-27T05:31:05.292Z,25.90
2022-07-27T05:32:08.135Z,25.90
2022-07-27T05:33:11.961Z,26.00
2022-07-27T05:34:14.573Z,26.00
2022-07-27T05:35:18.014Z,26.20
2022-07-27T05:36:21.294Z,26.30
2022-07-27T05:37:23.801Z,26.40
2022-07-27T05:38:29.614Z,26.40
2022-07-27T05:39:32.094Z,26.50
2022-07-27T05:40:35.412Z,26.60
2022-07-27T05:41:38.236Z,26.70
2022-07-27T05:42:43.925Z,26.80
2022-07-27T05:43:47.822Z,27.00
2022-07-27T05:44:53.919Z,27.00
2022-07-27T05:45:57.089Z,27.10
2022-07-27T05:47:00.813Z,27.20
2022-07-27T05:48:09.082Z,27.30
2022-07-27T05:49:11.830Z,27.30
2022-07-27T05:50:15.871Z,27.30
2022-07-27T05:51:18.273Z,27.40
2022-07-27T05:52:21.562Z,26.40
2022-07-27T05:53:23.878Z,27.50
2022-07-27T05:54:27.271Z,27.50
2022-07-27T05:55:29.836Z,27.40
2022-07-27T05:56:33.111Z,27.50
2022-07-27T05:57:35.966Z,27.50
2022-07-27T05:58:39.214Z,27.60
2022-07-27T05:59:42.302Z,27.70
2022-07-27T06:00:45.987Z,27.70
2022-07-27T06:01:48.270Z,27.80
2022-07-27T06:02:52.778Z,27.80
2022-07-27T06:03:55.142Z,27.90
2022-07-27T06:04:58.807Z,28.00
2022-07-27T06:06:20.377Z,28.00
2022-07-27T06:07:41.167Z,28.00
2022-07-27T06:08:44.904Z,28.10
2022-07-27T06:09:48.195Z,28.10
2022-07-27T06:10:50.597Z,28.10
2022-07-27T06:11:56.245Z,28.20
2022-07-27T06:12:59.363Z,28.20
2022-07-27T06:14:02.761Z,28.20
2022-07-27T06:15:05.886Z,28.30
2022-07-27T06:16:09.634Z,28.40
2022-07-27T06:17:13.009Z,28.50
2022-07-27T06:18:18.520Z,28.60
2022-07-27T06:19:22.805Z,28.60
2022-07-27T06:20:27.333Z,28.80
2022-07-27T06:21:30.308Z,28.70
2022-07-27T06:22:33.566Z,28.70
2022-07-27T06:23:35.783Z,28.80
2022-07-27T06:24:39.085Z,28.80
2022-07-27T06:25:41.485Z,28.80
2022-07-27T06:26:45.826Z,28.80
2022-07-27T06:27:48.689Z,28.80
2022-07-27T06:28:53.034Z,28.80
2022-07-27T06:29:55.259Z,28.70
2022-07-27T06:30:58.644Z,28.80
2022-07-27T06:32:02.518Z,28.80
2022-07-27T06:33:06.103Z,28.70
2022-07-27T06:34:11.767Z,28.70
2022-07-27T06:35:14.628Z,28.70
2022-07-27T06:36:18.234Z,28.70
2022-07-27T06:37:20.793Z,28.60
2022-07-27T06:38:25.091Z,28.70
2022-07-27T06:39:27.455Z,28.60
2022-07-27T06:40:32.260Z,28.60
2022-07-27T06:41:34.786Z,28.70
2022-07-27T06:42:38.444Z,28.70
2022-07-27T06:43:40.988Z,28.60
2022-07-27T06:44:44.560Z,28.60
2022-07-27T06:45:47.319Z,28.70
2022-07-27T06:46:50.808Z,28.60
2022-07-27T06:47:53.423Z,28.60
2022-07-27T06:48:57.119Z,28.60
2022-07-27T06:50:01.012Z,28.50
2022-07-27T06:51:04.522Z,28.50
2022-07-27T06:52:07.475Z,28.50
2022-07-27T06:53:11.073Z,28.50
2022-07-27T06:54:13.463Z,28.50
2022-07-27T06:55:16.670Z,28.50
2022-07-27T06:56:19.425Z,28.50
2022-07-27T06:57:22.695Z,28.50
2022-07-27T06:58:25.190Z,28.40
2022-07-27T06:59:43.397Z,28.40
2022-07-27T07:00:47.797Z,28.40
2022-07-27T07:01:50.089Z,28.30
2022-07-27T07:02:56.095Z,28.30
2022-07-27T07:04:00.026Z,28.30
2022-07-27T07:05:04.238Z,28.10
2022-07-27T07:06:07.555Z,28.10
2022-07-27T07:07:10.058Z,28.20
2022-07-27T07:08:14.970Z,28.20
2022-07-27T07:09:18.571Z,28.30
2022-07-27T07:10:21.674Z,28.30
2022-07-27T07:11:27.076Z,28.30
2022-07-27T07:12:33.228Z,28.30
2022-07-27T07:13:39.261Z,28.30
2022-07-27T07:14:44.469Z,28.30
2022-07-27T07:15:46.932Z,28.20
2022-07-27T07:16:50.404Z,28.20
2022-07-27T07:17:53.016Z,28.20
2022-07-27T07:18:56.264Z,28.20
2022-07-27T07:19:59.685Z,28.10
2022-07-27T07:21:04.357Z,28.10
2022-07-27T07:22:07.700Z,28.10
2022-07-27T07:23:10.802Z,28.00
2022-07-27T07:24:14.719Z,28.10
2022-07-27T07:25:18.206Z,28.10
2022-07-27T07:26:21.553Z,28.20
2022-07-27T07:27:25.825Z,28.10
2022-07-27T07:28:29.174Z,28.10
2022-07-27T07:29:31.437Z,28.20
2022-07-27T07:30:35.596Z,28.20
2022-07-27T07:31:38.142Z,28.20
2022-07-27T07:32:43.611Z,28.30
2022-07-27T07:33:47.641Z,28.30
2022-07-27T07:34:51.293Z,28.40
2022-07-27T07:36:12.086Z,28.40
2022-07-27T07:37:19.829Z,28.40
2022-07-27T07:38:24.873Z,28.50
2022-07-27T07:39:31.300Z,28.50
2022-07-27T07:40:43.908Z,28.50
2022-07-27T07:41:48.326Z,28.50
2022-07-27T07:42:53.750Z,28.60
2022-07-27T07:43:56.974Z,28.50
2022-07-27T07:44:59.465Z,28.60
2022-07-27T07:46:02.848Z,28.60
2022-07-27T07:47:05.514Z,28.60
2022-07-27T07:48:08.923Z,28.60
2022-07-27T07:49:13.587Z,28.50
2022-07-27T07:50:17.606Z,28.60
2022-07-27T07:51:21.171Z,28.60
2022-07-27T07:52:24.789Z,28.60
2022-07-27T07:53:28.322Z,28.60
2022-07-27T07:54:30.768Z,28.60
2022-07-27T07:55:34.186Z,28.60
2022-07-27T07:56:36.450Z,28.60
2022-07-27T07:57:39.992Z,28.60
2022-07-27T07:58:43.314Z,28.70
2022-07-27T07:59:46.899Z,28.60
2022-07-27T08:00:49.618Z,28.70
2022-07-27T08:01:53.039Z,28.70
2022-07-27T08:02:59.129Z,28.70
2022-07-27T08:04:02.746Z,28.60
2022-07-27T08:05:05.791Z,28.60
2022-07-27T08:06:09.230Z,28.60
2022-07-27T08:07:11.882Z,28.50
2022-07-27T08:08:17.340Z,28.50
2022-07-27T08:09:21.767Z,28.50
2022-07-27T08:10:25.579Z,28.50
2022-07-27T08:11:29.163Z,28.50
2022-07-27T08:12:31.541Z,28.50
2022-07-27T08:13:34.870Z,28.60
2022-07-27T08:14:37.084Z,28.60
2022-07-27T08:15:40.481Z,28.60
2022-07-27T08:16:43.934Z,28.60
2022-07-27T08:17:51.821Z,28.60
2022-07-27T08:18:57.205Z,28.60
2022-07-27T08:19:59.577Z,28.60
2022-07-27T08:21:02.970Z,28.70
2022-07-27T08:22:05.564Z,28.80
2022-07-27T08:23:08.929Z,28.70
2022-07-27T08:24:12.718Z,28.80
2022-07-27T08:25:16.013Z,28.80
2022-07-27T08:26:19.417Z,28.80
2022-07-27T08:27:24.445Z,28.80
2022-07-27T08:28:27.983Z,28.80
2022-07-27T08:29:37.338Z,28.80
2022-07-27T08:30:40.924Z,28.80
2022-07-27T08:31:52.482Z,28.80
2022-07-27T08:32:59.873Z,28.80
2022-07-27T08:34:02.293Z,28.80
2022-07-27T08:35:06.496Z,28.80
2022-07-27T08:36:09.871Z,28.90
2022-07-27T08:37:15.566Z,28.80
2022-07-27T08:38:19.513Z,28.80
2022-07-27T08:40:05.629Z,28.90
2022-07-27T08:40:48.923Z,28.90
2022-07-27T08:41:54.300Z,28.90
2022-07-27T08:42:57.631Z,28.90
2022-07-27T08:44:04.056Z,28.90
2022-07-27T08:45:08.242Z,28.90
2022-07-27T08:46:13.096Z,28.90
2022-07-27T08:47:16.028Z,29.00
2022-07-27T08:48:19.587Z,28.90
2022-07-27T08:49:41.450Z,28.90
2022-07-27T08:50:50.709Z,28.90
2022-07-27T08:51:53.191Z,28.90
2022-07-27T08:53:03.176Z,29.00
2022-07-27T08:54:07.885Z,28.90
2022-07-27T08:55:13.978Z,28.90
2022-07-27T08:56:17.306Z,28.90
2022-07-27T08:57:21.548Z,28.80
2022-07-27T08:58:24.686Z,28.90
2022-07-27T08:59:27.963Z,28.80
2022-07-27T09:00:33.357Z,28.80
2022-07-27T09:01:37.446Z,28.80
2022-07-27T09:02:42.549Z,28.80
2022-07-27T09:03:46.003Z,28.80
2022-07-27T09:04:48.531Z,28.80
2022-07-27T09:05:55.287Z,28.70
2022-07-27T09:06:57.697Z,28.70
2022-07-27T09:08:10.251Z,28.70
2022-07-27T09:09:16.073Z,28.60
2022-07-27T09:10:38.454Z,28.60
2022-07-27T09:11:42.072Z,28.50
2022-07-27T09:12:44.401Z,28.50
2022-07-27T09:13:48.100Z,28.50
2022-07-27T09:14:53.166Z,28.50
2022-07-27T09:18:49.959Z,28.40
2022-07-27T09:19:57.509Z,28.50
2022-07-27T09:21:12.387Z,28.40
2022-07-27T09:22:14.813Z,28.50
2022-07-27T09:23:28.281Z,28.50
2022-07-27T09:24:47.952Z,28.50
2022-07-27T09:26:23.213Z,28.50
2022-07-27T09:27:33.941Z,28.40
2022-07-27T09:28:38.011Z,28.30
2022-07-27T09:29:40.493Z,28.20
2022-07-27T09:30:44.784Z,28.10
2022-07-27T09:31:51.734Z,28.10
2022-07-27T09:33:00.484Z,28.10
2022-07-27T09:34:04.796Z,28.20
2022-07-27T09:35:19.415Z,28.20
2022-07-27T09:36:25.708Z,28.10
2022-07-27T09:37:28.915Z,28.10
2022-07-27T09:38:32.179Z,28.10
2022-07-27T09:39:35.532Z,28.20
2022-07-27T09:40:39.244Z,28.20
2022-07-27T09:41:46.003Z,28.00
2022-07-27T09:43:31.865Z,27.90
2022-07-27T09:44:43.000Z,27.60
2022-07-27T09:45:51.232Z,27.60
2022-07-27T09:46:55.372Z,27.60
2022-07-27T09:48:16.615Z,27.60
2022-07-27T09:49:31.253Z,27.70
2022-07-27T09:50:35.957Z,27.70
2022-07-27T09:52:03.020Z,27.70
2022-07-27T09:53:41.215Z,27.70
2022-07-27T09:54:47.408Z,27.70
2022-07-27T09:55:59.309Z,27.80
2022-07-27T09:57:05.557Z,27.90
2022-07-27T09:58:10.050Z,27.90
2022-07-27T09:59:20.255Z,27.90
2022-07-27T10:00:24.327Z,27.80
2022-07-27T10:01:30.994Z,27.70
2022-07-27T10:02:34.563Z,27.70
2022-07-27T10:03:37.153Z,27.60
2022-07-27T10:04:40.924Z,27.50
2022-07-27T10:05:43.735Z,27.60
2022-07-27T10:07:02.158Z,27.60
2022-07-27T10:08:07.398Z,27.60
2022-07-27T10:09:09.685Z,27.60
2022-07-27T10:10:15.351Z,27.60
2022-07-27T10:11:20.123Z,27.60
2022-07-27T10:12:24.803Z,27.60
2022-07-27T10:13:27.486Z,27.60
2022-07-27T10:14:30.764Z,27.60
2022-07-27T10:15:33.591Z,27.70
2022-07-27T10:16:40.105Z,27.60
2022-07-27T10:17:46.108Z,27.60
2022-07-27T10:19:03.002Z,27.70
2022-07-27T10:20:14.898Z,27.70
2022-07-27T10:21:18.895Z,27.60
2022-07-27T10:22:50.238Z,27.60
2022-07-27T10:23:58.684Z,27.60
2022-07-27T10:25:01.419Z,27.60
2022-07-27T10:26:18.555Z,27.60
2022-07-27T10:27:28.105Z,27.50
2022-07-27T10:28:30.715Z,27.40
2022-07-27T10:29:33.993Z,27.50
2022-07-27T10:30:37.238Z,27.40
2022-07-27T10:31:44.776Z,27.30
2022-07-27T10:32:47.587Z,27.20
2022-07-27T10:33:54.462Z,27.20
2022-07-27T10:34:57.814Z,27.20
2022-07-27T10:36:02.461Z,27.00
2022-07-27T10:37:11.680Z,27.00
2022-07-27T10:38:18.421Z,27.00
2022-07-27T10:39:36.704Z,27.00
2022-07-27T10:40:39.410Z,26.90
2022-07-27T10:41:43.969Z,26.90
2022-07-27T10:42:54.393Z,26.90
2022-07-27T10:44:28.471Z,26.80
2022-07-27T10:45:55.204Z,26.70
2022-07-27T10:47:05.802Z,26.80
2022-07-27T10:48:09.103Z,26.80
2022-07-27T10:49:19.065Z,26.90
2022-07-27T10:50:33.426Z,27.00
2022-07-27T10:51:36.297Z,27.00
2022-07-27T10:52:42.956Z,27.00
2022-07-27T10:54:11.481Z,27.00
2022-07-27T10:55:46.771Z,27.10
2022-07-27T10:56:52.407Z,27.10
2022-07-27T10:57:56.367Z,27.10
2022-07-27T10:58:59.685Z,27.10
2022-07-27T11:00:09.286Z,27.10
2022-07-27T11:01:16.069Z,27.20
2022-07-27T11:02:39.027Z,27.20
2022-07-27T11:03:43.794Z,27.30
2022-07-27T11:04:50.322Z,27.30
2022-07-27T11:06:01.965Z,27.40
2022-07-27T11:07:34.277Z,27.40
2022-07-27T11:08:38.366Z,27.40
2022-07-27T11:11:08.764Z,27.50
2022-07-27T11:12:14.029Z,27.50
2022-07-27T11:13:19.196Z,27.50
2022-07-27T11:14:30.956Z,27.50
2022-07-27T11:15:34.158Z,27.50
2022-07-27T11:16:54.134Z,27.40
2022-07-27T11:18:03.308Z,27.30
2022-07-27T11:19:08.336Z,27.20
2022-07-27T11:20:13.318Z,27.10
2022-07-27T11:21:25.960Z,27.10
2022-07-27T11:22:53.575Z,27.10
2022-07-27T11:23:57.716Z,27.00
2022-07-27T11:25:02.139Z,26.90
2022-07-27T11:26:04.613Z,27.10
2022-07-27T11:27:17.680Z,26.80
2022-07-27T11:28:29.401Z,26.80
2022-07-27T11:29:43.624Z,26.70
2022-07-27T11:30:46.396Z,26.70
2022-07-27T11:31:55.786Z,26.60
2022-07-27T11:33:04.816Z,26.60
2022-07-27T11:34:08.869Z,26.60
2022-07-27T11:35:19.635Z,26.60
2022-07-27T11:36:25.908Z,26.50
2022-07-27T11:37:28.403Z,26.50
2022-07-27T11:38:45.504Z,26.50
2022-07-27T11:40:27.846Z,26.40
2022-07-27T11:41:55.618Z,26.40
2022-07-27T11:42:44.496Z,26.50
2022-07-27T11:43:49.051Z,26.40
2022-07-27T11:44:53.229Z,26.40
2022-07-27T11:45:55.912Z,26.40
2022-07-27T11:47:02.145Z,26.40
2022-07-27T11:48:08.217Z,26.40
2022-07-27T11:49:13.919Z,26.40
2022-07-27T11:50:16.503Z,26.40
2022-07-27T11:51:20.383Z,26.40
2022-07-27T11:52:25.374Z,26.50
2022-07-27T11:53:29.217Z,26.60
2022-07-27T11:54:34.321Z,26.60
2022-07-27T11:55:36.654Z,26.70
2022-07-27T11:56:43.932Z,26.80
2022-07-27T11:57:47.297Z,26.90
2022-07-27T11:59:04.351Z,26.90
2022-07-27T12:00:09.159Z,27.00
2022-07-27T12:01:27.897Z,27.10
2022-07-27T12:02:31.277Z,27.10
2022-07-27T12:03:46.988Z,27.20
2022-07-27T12:04:53.259Z,27.20
2022-07-27T12:05:58.498Z,27.20
2022-07-27T12:07:06.224Z,27.10
2022-07-27T12:08:09.038Z,27.10
2022-07-27T12:09:15.731Z,27.00
2022-07-27T12:10:19.525Z,26.80
2022-07-27T12:11:34.037Z,26.80
2022-07-27T12:12:39.104Z,26.80
2022-07-27T12:13:41.486Z,26.80
2022-07-27T12:14:51.247Z,26.80
2022-07-27T12:15:57.078Z,26.90
2022-07-27T12:17:19.234Z,26.90
2022-07-27T12:18:21.636Z,26.90
2022-07-27T12:19:25.811Z,26.90
2022-07-27T12:20:34.941Z,26.90
2022-07-27T12:21:38.444Z,26.90
2022-07-27T12:22:46.140Z,26.80
2022-07-27T12:23:52.822Z,26.80
2022-07-27T12:25:00.852Z,26.80
2022-07-27T12:26:17.866Z,26.70
2022-07-27T12:27:22.095Z,26.70
2022-07-27T12:28:28.849Z,26.70
2022-07-27T12:29:31.653Z,26.60
2022-07-27T12:30:38.350Z,26.70
2022-07-27T12:31:49.318Z,26.60
2022-07-27T12:32:55.523Z,26.50
2022-07-27T12:34:05.825Z,26.40
2022-07-27T12:35:25.515Z,26.50
2022-07-27T12:36:27.936Z,26.60
2022-07-27T12:37:32.703Z,26.60
2022-07-27T12:38:40.653Z,26.70
2022-07-27T12:39:44.443Z,26.80
2022-07-27T12:40:52.643Z,26.90
2022-07-27T12:42:04.118Z,27.00
2022-07-27T12:43:09.015Z,27.00
2022-07-27T12:44:13.557Z,27.10
2022-07-27T12:45:22.189Z,27.10
2022-07-27T12:46:26.119Z,27.10
2022-07-27T12:47:41.927Z,27.10
2022-07-27T12:48:45.534Z,27.00
2022-07-27T12:50:02.821Z,27.00
2022-07-27T12:51:08.686Z,27.00
2022-07-27T12:52:12.367Z,26.90
2022-07-27T12:53:18.035Z,26.80
2022-07-27T12:54:20.347Z,26.80
2022-07-27T12:55:24.919Z,26.70
2022-07-27T12:56:27.890Z,26.70
2022-07-27T12:57:54.035Z,26.60
2022-07-27T12:59:01.432Z,26.50
2022-07-27T13:00:05.262Z,26.50
2022-07-27T13:01:09.027Z,26.40
2022-07-27T13:02:13.248Z,26.30
2022-07-27T13:03:17.146Z,26.30
2022-07-27T13:04:19.479Z,26.20
2022-07-27T13:05:22.864Z,26.20
2022-07-27T13:06:26.855Z,26.10
2022-07-27T13:07:29.362Z,26.10
2022-07-27T13:08:34.150Z,26.10
2022-07-27T13:10:02.743Z,26.10
2022-07-27T13:11:01.300Z,26.10
2022-07-27T13:12:04.232Z,26.10
2022-07-27T13:13:09.938Z,26.10
2022-07-27T13:14:12.566Z,26.00
2022-07-27T13:15:17.598Z,26.00
2022-07-27T13:16:20.945Z,26.10
2022-07-27T13:17:24.869Z,26.10
2022-07-27T13:18:28.400Z,26.10
2022-07-27T13:19:31.023Z,26.20
2022-07-27T13:20:34.311Z,26.20
2022-07-27T13:21:36.773Z,26.30
2022-07-27T13:22:42.090Z,26.50
2022-07-27T13:23:46.079Z,26.50
2022-07-27T13:24:49.478Z,26.60
2022-07-27T13:25:53.050Z,26.50
2022-07-27T13:26:55.869Z,26.50
2022-07-27T13:27:59.380Z,26.50
2022-07-27T13:29:01.854Z,26.50
2022-07-27T13:30:07.389Z,26.40
2022-07-27T13:31:10.881Z,26.30
2022-07-27T13:32:14.515Z,26.40
2022-07-27T13:33:23.111Z,26.40
2022-07-27T13:34:26.617Z,26.40
2022-07-27T13:35:30.885Z,26.50
2022-07-27T13:36:33.334Z,26.40
2022-07-27T13:37:36.752Z,26.30
2022-07-27T13:38:40.039Z,26.40
2022-07-27T13:39:43.492Z,26.50
2022-07-27T13:40:48.178Z,26.40
2022-07-27T13:41:55.054Z,26.40
2022-07-27T13:42:58.423Z,26.50
2022-07-27T13:44:00.810Z,26.40
2022-07-27T13:45:09.737Z,26.20
2022-07-27T13:46:14.483Z,26.20
2022-07-27T13:47:17.893Z,26.20
2022-07-27T13:48:22.491Z,26.00
2022-07-27T13:49:25.768Z,25.90
2022-07-27T13:50:29.082Z,26.00
2022-07-27T13:51:32.499Z,26.00
2022-07-27T13:52:36.269Z,26.00
2022-07-27T13:53:38.701Z,26.00
2022-07-27T13:54:42.062Z,26.10
2022-07-27T13:55:46.248Z,26.20
2022-07-27T13:56:49.616Z,26.30
2022-07-27T13:57:53.093Z,26.40
2022-07-27T13:58:55.736Z,26.40
2022-07-27T13:59:59.875Z,26.50
2022-07-27T14:01:07.419Z,26.50
2022-07-27T14:02:11.607Z,26.50
2022-07-27T14:03:15.078Z,26.50
2022-07-27T14:04:20.151Z,26.50
2022-07-27T14:05:22.779Z,26.50
2022-07-27T14:06:28.989Z,26.60
2022-07-27T14:07:33.322Z,26.60
2022-07-27T14:08:36.101Z,26.50
2022-07-27T14:09:57.122Z,26.50
2022-07-27T14:11:02.643Z,26.50
2022-07-27T14:12:06.302Z,26.60
2022-07-27T14:13:11.746Z,26.60
2022-07-27T14:14:15.153Z,26.60
2022-07-27T14:15:17.560Z,26.70
2022-07-27T14:16:21.155Z,26.70
2022-07-27T14:17:23.743Z,26.70
2022-07-27T14:18:29.451Z,26.40
2022-07-27T14:19:33.697Z,26.30
2022-07-27T14:20:36.984Z,26.40
2022-07-27T14:21:40.504Z,26.50
2022-07-27T14:22:42.850Z,26.60
2022-07-27T14:23:46.660Z,26.50
2022-07-27T14:24:49.173Z,26.60
2022-07-27T14:25:53.558Z,26.40
2022-07-27T14:26:58.405Z,26.40
2022-07-27T14:28:01.304Z,26.40
2022-07-27T14:29:04.587Z,26.40
2022-07-27T14:30:10.569Z,26.30
2022-07-27T14:31:14.178Z,26.30
2022-07-27T14:32:17.548Z,26.30
2022-07-27T14:33:21.112Z,26.30
2022-07-27T14:34:23.408Z,26.30
2022-07-27T14:35:30.907Z,26.30
2022-07-27T14:36:34.344Z,26.30
2022-07-27T14:37:36.638Z,26.40
2022-07-27T14:38:40.335Z,26.40
2022-07-27T14:39:42.516Z,26.40
2022-07-27T14:40:46.048Z,26.50